sensor_id;sensor_type;location;lat;lon;timestamp;P1;durP1;ratioP1;P2;durP2;ratioP2
15297;SDS011;7750;48.796;9.026;2022-12-18T00:03:04;68.63;;;32.87;;
15297;SDS011;7750;48.796;9.026;2022-12-18T00:08:05;67.33;;;32.30;;
15297;SDS011;7750;48.796;9.026;2022-12-18T00:13:06;65.40;;;32.10;;
15297;SDS011;7750;48.796;9.026;2022-12-18T00:18:06;57.57;;;29.80;;
15297;SDS011;7750;48.796;9.026;2022-12-18T00:23:08;61.53;;;30.50;;
15297;SDS011;7750;48.796;9.026;2022-12-18T00:28:08;61.90;;;29.50;;
15297;SDS011;7750;48.796;9.026;2022-12-18T00:33:09;58.07;;;29.47;;
15297;SDS011;7750;48.796;9.026;2022-12-18T00:38:10;58.90;;;29.37;;
15297;SDS011;7750;48.796;9.026;2022-12-18T00:43:10;59.30;;;29.93;;
15297;SDS011;7750;48.796;9.026;2022-12-18T00:48:11;52.67;;;27.17;;
15297;SDS011;7750;48.796;9.026;2022-12-18T00:53:12;57.70;;;29.53;;
15297;SDS011;7750;48.796;9.026;2022-12-18T00:58:13;52.50;;;27.73;;
15297;SDS011;7750;48.796;9.026;2022-12-18T01:03:15;65.90;;;29.33;;
15297;SDS011;7750;48.796;9.026;2022-12-18T07:11:03;35.40;;;17.60;;
15297;SDS011;7750;48.796;9.026;2022-12-18T07:16:05;42.70;;;19.17;;
15297;SDS011;7750;48.796;9.026;2022-12-18T07:21:24;37.23;;;19.20;;
15297;SDS011;7750;48.796;9.026;2022-12-18T07:26:25;40.00;;;20.47;;
15297;SDS011;7750;48.796;9.026;2022-12-18T07:31:26;34.50;;;19.07;;
15297;SDS011;7750;48.796;9.026;2022-12-18T07:36:27;30.67;;;17.33;;
15297;SDS011;7750;48.796;9.026;2022-12-18T07:41:27;29.83;;;16.40;;
15297;SDS011;7750;48.796;9.026;2022-12-18T07:46:28;37.33;;;18.60;;
15297;SDS011;7750;48.796;9.026;2022-12-18T07:51:29;34.00;;;19.20;;
15297;SDS011;7750;48.796;9.026;2022-12-18T07:56:29;38.03;;;19.10;;
15297;SDS011;7750;48.796;9.026;2022-12-18T08:01:30;37.97;;;18.80;;
15297;SDS011;7750;48.796;9.026;2022-12-18T08:06:31;31.20;;;17.00;;
15297;SDS011;7750;48.796;9.026;2022-12-18T08:11:32;35.07;;;19.00;;
15297;SDS011;7750;48.796;9.026;2022-12-18T08:16:32;31.07;;;17.43;;
15297;SDS011;7750;48.796;9.026;2022-12-18T08:21:33;33.50;;;19.37;;
15297;SDS011;7750;48.796;9.026;2022-12-18T08:26:40;33.70;;;19.67;;
15297;SDS011;7750;48.796;9.026;2022-12-18T08:31:41;37.00;;;20.33;;
15297;SDS011;7750;48.796;9.026;2022-12-18T08:36:41;35.23;;;19.47;;
15297;SDS011;7750;48.796;9.026;2022-12-18T08:41:42;35.60;;;20.07;;
15297;SDS011;7750;48.796;9.026;2022-12-18T08:47:03;34.60;;;20.23;;
15297;SDS011;7750;48.796;9.026;2022-12-18T08:52:04;34.30;;;19.07;;
15297;SDS011;7750;48.796;9.026;2022-12-18T08:57:05;33.83;;;17.93;;
15297;SDS011;7750;48.796;9.026;2022-12-18T09:02:07;40.43;;;21.13;;
15297;SDS011;7750;48.796;9.026;2022-12-18T09:07:10;37.17;;;22.10;;
15297;SDS011;7750;48.796;9.026;2022-12-18T09:12:10;39.33;;;22.43;;
15297;SDS011;7750;48.796;9.026;2022-12-18T09:17:11;37.50;;;22.10;;
15297;SDS011;7750;48.796;9.026;2022-12-18T09:22:11;37.87;;;22.27;;
15297;SDS011;7750;48.796;9.026;2022-12-18T09:27:12;40.33;;;23.33;;
15297;SDS011;7750;48.796;9.026;2022-12-18T09:32:13;38.80;;;21.63;;
15297;SDS011;7750;48.796;9.026;2022-12-18T09:37:14;35.90;;;22.10;;
15297;SDS011;7750;48.796;9.026;2022-12-18T09:42:20;38.90;;;22.20;;
15297;SDS011;7750;48.796;9.026;2022-12-18T09:57:33;40.93;;;22.60;;
15297;SDS011;7750;48.796;9.026;2022-12-18T10:02:37;45.10;;;25.27;;
15297;SDS011;7750;48.796;9.026;2022-12-18T10:07:41;41.93;;;22.83;;
15297;SDS011;7750;48.796;9.026;2022-12-18T10:28:49;37.80;;;21.63;;
15297;SDS011;7750;48.796;9.026;2022-12-18T10:33:51;41.80;;;24.40;;
15297;SDS011;7750;48.796;9.026;2022-12-18T10:38:53;38.57;;;22.73;;
15297;SDS011;7750;48.796;9.026;2022-12-18T10:44:23;33.77;;;19.27;;
15297;SDS011;7750;48.796;9.026;2022-12-18T10:49:28;33.17;;;19.77;;
15297;SDS011;7750;48.796;9.026;2022-12-18T10:54:31;30.27;;;19.30;;
15297;SDS011;7750;48.796;9.026;2022-12-18T10:59:33;34.27;;;21.30;;
15297;SDS011;7750;48.796;9.026;2022-12-18T11:04:51;39.90;;;24.20;;
15297;SDS011;7750;48.796;9.026;2022-12-18T11:10:04;34.90;;;21.00;;
15297;SDS011;7750;48.796;9.026;2022-12-18T11:15:06;37.50;;;21.73;;
15297;SDS011;7750;48.796;9.026;2022-12-18T11:20:30;36.77;;;21.90;;
15297;SDS011;7750;48.796;9.026;2022-12-18T11:25:34;32.27;;;20.03;;
15297;SDS011;7750;48.796;9.026;2022-12-18T11:30:35;30.07;;;18.93;;
15297;SDS011;7750;48.796;9.026;2022-12-18T11:35:53;33.20;;;20.40;;
15297;SDS011;7750;48.796;9.026;2022-12-18T11:46:02;33.23;;;21.00;;
15297;SDS011;7750;48.796;9.026;2022-12-18T11:51:20;30.97;;;19.43;;
15297;SDS011;7750;48.796;9.026;2022-12-18T11:56:29;31.50;;;19.07;;
15297;SDS011;7750;48.796;9.026;2022-12-18T12:06:41;32.10;;;17.73;;
15297;SDS011;7750;48.796;9.026;2022-12-18T12:11:52;36.13;;;20.70;;
15297;SDS011;7750;48.796;9.026;2022-12-18T12:17:10;31.30;;;19.07;;
15297;SDS011;7750;48.796;9.026;2022-12-18T12:38:22;32.30;;;19.10;;
15297;SDS011;7750;48.796;9.026;2022-12-18T12:43:40;33.20;;;19.47;;
15297;SDS011;7750;48.796;9.026;2022-12-18T12:48:54;28.90;;;18.00;;
15297;SDS011;7750;48.796;9.026;2022-12-18T12:53:57;34.10;;;20.73;;
15297;SDS011;7750;48.796;9.026;2022-12-18T13:04:39;27.67;;;16.00;;
15297;SDS011;7750;48.796;9.026;2022-12-18T13:16:03;34.47;;;19.50;;
15297;SDS011;7750;48.796;9.026;2022-12-18T13:20:47;33.43;;;20.23;;
15297;SDS011;7750;48.796;9.026;2022-12-18T13:30:56;32.10;;;18.67;;
15297;SDS011;7750;48.796;9.026;2022-12-18T13:36:14;30.37;;;18.40;;
15297;SDS011;7750;48.796;9.026;2022-12-18T13:41:27;35.57;;;21.20;;
15297;SDS011;7750;48.796;9.026;2022-12-18T13:46:42;34.17;;;20.43;;
15297;SDS011;7750;48.796;9.026;2022-12-18T13:51:49;32.37;;;19.27;;
15297;SDS011;7750;48.796;9.026;2022-12-18T13:56:51;34.13;;;20.40;;
15297;SDS011;7750;48.796;9.026;2022-12-18T14:01:59;31.57;;;20.13;;
15297;SDS011;7750;48.796;9.026;2022-12-18T14:07:15;36.40;;;21.67;;
15297;SDS011;7750;48.796;9.026;2022-12-18T14:12:22;32.90;;;20.33;;
15297;SDS011;7750;48.796;9.026;2022-12-18T14:17:44;37.63;;;20.70;;
15297;SDS011;7750;48.796;9.026;2022-12-18T14:22:45;36.80;;;21.37;;
15297;SDS011;7750;48.796;9.026;2022-12-18T14:33:04;36.87;;;22.60;;
15297;SDS011;7750;48.796;9.026;2022-12-18T14:38:09;40.00;;;22.80;;
15297;SDS011;7750;48.796;9.026;2022-12-18T14:43:10;36.37;;;23.83;;
15297;SDS011;7750;48.796;9.026;2022-12-18T14:48:16;43.00;;;22.50;;
15297;SDS011;7750;48.796;9.026;2022-12-18T14:53:20;40.83;;;24.30;;
15297;SDS011;7750;48.796;9.026;2022-12-18T14:59:17;40.10;;;23.30;;
15297;SDS011;7750;48.796;9.026;2022-12-18T15:04:31;41.97;;;25.50;;
15297;SDS011;7750;48.796;9.026;2022-12-18T15:09:36;35.90;;;21.87;;
15297;SDS011;7750;48.796;9.026;2022-12-18T15:14:39;37.77;;;21.80;;
15297;SDS011;7750;48.796;9.026;2022-12-18T15:19:42;41.77;;;25.10;;
15297;SDS011;7750;48.796;9.026;2022-12-18T15:24:44;41.27;;;22.90;;
15297;SDS011;7750;48.796;9.026;2022-12-18T15:29:58;41.37;;;24.20;;
15297;SDS011;7750;48.796;9.026;2022-12-18T15:35:21;39.13;;;21.67;;
15297;SDS011;7750;48.796;9.026;2022-12-18T15:40:23;36.30;;;21.87;;
15297;SDS011;7750;48.796;9.026;2022-12-18T15:45:24;40.37;;;23.77;;
15297;SDS011;7750;48.796;9.026;2022-12-18T15:50:24;41.47;;;23.80;;
15297;SDS011;7750;48.796;9.026;2022-12-18T15:55:25;48.27;;;26.77;;
15297;SDS011;7750;48.796;9.026;2022-12-18T16:00:45;41.77;;;24.87;;
15297;SDS011;7750;48.796;9.026;2022-12-18T16:05:49;47.20;;;28.08;;
15297;SDS011;7750;48.796;9.026;2022-12-18T16:11:25;43.77;;;26.10;;
15297;SDS011;7750;48.796;9.026;2022-12-18T16:22:14;41.57;;;23.97;;
15297;SDS011;7750;48.796;9.026;2022-12-18T16:37:41;41.33;;;22.40;;
15297;SDS011;7750;48.796;9.026;2022-12-18T16:42:46;43.63;;;25.00;;
15297;SDS011;7750;48.796;9.026;2022-12-18T16:48:39;49.40;;;27.70;;
15297;SDS011;7750;48.796;9.026;2022-12-18T16:53:40;48.07;;;26.50;;
15297;SDS011;7750;48.796;9.026;2022-12-18T16:59:19;39.10;;;22.90;;
15297;SDS011;7750;48.796;9.026;2022-12-18T17:39:57;46.50;;;26.10;;
15297;SDS011;7750;48.796;9.026;2022-12-18T17:50:26;44.40;;;25.50;;
15297;SDS011;7750;48.796;9.026;2022-12-18T17:55:41;47.70;;;26.53;;
15297;SDS011;7750;48.796;9.026;2022-12-18T18:16:16;50.57;;;27.50;;
15297;SDS011;7750;48.796;9.026;2022-12-18T18:21:17;46.03;;;25.63;;
15297;SDS011;7750;48.796;9.026;2022-12-18T18:26:20;53.60;;;28.97;;
15297;SDS011;7750;48.796;9.026;2022-12-18T18:31:31;42.27;;;26.37;;
15297;SDS011;7750;48.796;9.026;2022-12-18T18:36:34;43.50;;;25.87;;
15297;SDS011;7750;48.796;9.026;2022-12-18T18:41:52;54.67;;;30.47;;
15297;SDS011;7750;48.796;9.026;2022-12-18T18:47:09;59.30;;;31.30;;
15297;SDS011;7750;48.796;9.026;2022-12-18T18:52:38;50.70;;;28.70;;
15297;SDS011;7750;48.796;9.026;2022-12-18T19:02:52;52.53;;;28.07;;
15297;SDS011;7750;48.796;9.026;2022-12-18T19:07:54;51.17;;;27.17;;
15297;SDS011;7750;48.796;9.026;2022-12-18T19:12:55;48.50;;;28.00;;
15297;SDS011;7750;48.796;9.026;2022-12-18T19:18:14;49.90;;;27.47;;
15297;SDS011;7750;48.796;9.026;2022-12-18T19:23:15;46.33;;;26.33;;
15297;SDS011;7750;48.796;9.026;2022-12-18T19:28:20;55.57;;;29.60;;
15297;SDS011;7750;48.796;9.026;2022-12-18T19:33:26;56.87;;;31.20;;
15297;SDS011;7750;48.796;9.026;2022-12-18T19:38:27;54.70;;;30.00;;
15297;SDS011;7750;48.796;9.026;2022-12-18T19:43:37;48.30;;;29.47;;
15297;SDS011;7750;48.796;9.026;2022-12-18T19:48:38;61.83;;;35.40;;
15297;SDS011;7750;48.796;9.026;2022-12-18T19:53:39;55.00;;;30.93;;
15297;SDS011;7750;48.796;9.026;2022-12-18T19:58:40;67.70;;;35.23;;
15297;SDS011;7750;48.796;9.026;2022-12-18T20:03:43;55.87;;;31.10;;
15297;SDS011;7750;48.796;9.026;2022-12-18T20:08:44;56.63;;;29.80;;
15297;SDS011;7750;48.796;9.026;2022-12-18T20:13:45;58.03;;;31.27;;
15297;SDS011;7750;48.796;9.026;2022-12-18T20:18:46;60.20;;;32.93;;
15297;SDS011;7750;48.796;9.026;2022-12-18T20:23:49;48.97;;;28.40;;
15297;SDS011;7750;48.796;9.026;2022-12-18T20:28:58;61.77;;;32.17;;
15297;SDS011;7750;48.796;9.026;2022-12-18T20:39:39;49.13;;;28.80;;
15297;SDS011;7750;48.796;9.026;2022-12-18T20:44:39;49.20;;;28.83;;
15297;SDS011;7750;48.796;9.026;2022-12-18T20:49:48;56.67;;;31.10;;
15297;SDS011;7750;48.796;9.026;2022-12-18T20:54:49;49.30;;;28.27;;
15297;SDS011;7750;48.796;9.026;2022-12-18T20:59:49;44.83;;;27.70;;
15297;SDS011;7750;48.796;9.026;2022-12-18T21:04:50;55.47;;;31.50;;
15297;SDS011;7750;48.796;9.026;2022-12-18T21:09:54;57.60;;;31.03;;
15297;SDS011;7750;48.796;9.026;2022-12-18T21:15:35;54.50;;;31.00;;
15297;SDS011;7750;48.796;9.026;2022-12-18T21:20:36;59.00;;;32.13;;
15297;SDS011;7750;48.796;9.026;2022-12-18T21:25:37;57.17;;;33.47;;
15297;SDS011;7750;48.796;9.026;2022-12-18T21:30:38;56.93;;;33.03;;
15297;SDS011;7750;48.796;9.026;2022-12-18T21:35:38;51.47;;;29.73;;
15297;SDS011;7750;48.796;9.026;2022-12-18T21:40:39;55.87;;;30.43;;
15297;SDS011;7750;48.796;9.026;2022-12-18T21:45:40;54.80;;;31.80;;
15297;SDS011;7750;48.796;9.026;2022-12-18T21:50:40;61.83;;;32.47;;
15297;SDS011;7750;48.796;9.026;2022-12-18T21:55:41;54.63;;;32.17;;
15297;SDS011;7750;48.796;9.026;2022-12-18T22:00:42;49.53;;;28.17;;
15297;SDS011;7750;48.796;9.026;2022-12-18T22:05:43;51.70;;;29.93;;
15297;SDS011;7750;48.796;9.026;2022-12-18T22:10:44;46.27;;;25.87;;
15297;SDS011;7750;48.796;9.026;2022-12-18T22:15:45;45.80;;;26.20;;
15297;SDS011;7750;48.796;9.026;2022-12-18T22:20:46;46.90;;;28.47;;
15297;SDS011;7750;48.796;9.026;2022-12-18T22:25:46;47.10;;;26.30;;
15297;SDS011;7750;48.796;9.026;2022-12-18T22:30:47;40.87;;;24.10;;
15297;SDS011;7750;48.796;9.026;2022-12-18T22:35:48;43.03;;;25.47;;
15297;SDS011;7750;48.796;9.026;2022-12-18T22:40:48;43.07;;;26.10;;
15297;SDS011;7750;48.796;9.026;2022-12-18T22:45:49;39.37;;;24.00;;
15297;SDS011;7750;48.796;9.026;2022-12-18T22:51:05;42.43;;;26.50;;
15297;SDS011;7750;48.796;9.026;2022-12-18T22:56:05;42.90;;;25.87;;
15297;SDS011;7750;48.796;9.026;2022-12-18T23:01:06;48.27;;;27.00;;
15297;SDS011;7750;48.796;9.026;2022-12-18T23:06:14;38.70;;;23.60;;
15297;SDS011;7750;48.796;9.026;2022-12-18T23:11:16;44.10;;;24.50;;
15297;SDS011;7750;48.796;9.026;2022-12-18T23:16:18;50.67;;;26.77;;
15297;SDS011;7750;48.796;9.026;2022-12-18T23:21:21;36.70;;;23.10;;
15297;SDS011;7750;48.796;9.026;2022-12-18T23:26:23;41.93;;;24.37;;
15297;SDS011;7750;48.796;9.026;2022-12-18T23:31:25;37.53;;;22.80;;
15297;SDS011;7750;48.796;9.026;2022-12-18T23:36:28;41.17;;;25.10;;
15297;SDS011;7750;48.796;9.026;2022-12-18T23:41:30;41.70;;;23.67;;
15297;SDS011;7750;48.796;9.026;2022-12-18T23:46:32;30.23;;;19.53;;
15297;SDS011;7750;48.796;9.026;2022-12-18T23:51:36;30.90;;;19.70;;
15297;SDS011;7750;48.796;9.026;2022-12-18T23:56:40;33.60;;;20.10;;
